Time;durP1;ratioP1;P1;durP2;ratioP2;P2;SDS_P1;SDS_P2;PMS_P1;PMS_P2;Temp;Humidity;BMP_temperature;BMP_pressure;BME280_temperature;BME280_humidity;BME280_pressure;Samples;Min_cycle;Max_cycle;Signal;HPM_P1;HPM_P2
2021/06/24 00:00:48;;;;;;;2.90;0.50;;;14.40;99.90;;;;;;5075512;28;20410;-86
2021/06/24 00:03:15;;;;;;;2.67;0.70;;;14.40;99.90;;;;;;5068791;28;20459;-85
2021/06/24 00:05:43;;;;;;;1.27;0.43;;;14.50;99.90;;;;;;5070032;28;20409;-85
2021/06/24 00:08:12;;;;;;;2.40;0.60;;;14.40;99.90;;;;;;5061715;28;21445;-89
2021/06/24 00:10:42;;;;;;;1.67;0.50;;;14.50;99.90;;;;;;5063054;28;20394;-89
2021/06/24 00:13:09;;;;;;;1.80;0.63;;;14.50;99.90;;;;;;5063623;28;20404;-90
2021/06/24 00:15:37;;;;;;;1.90;0.40;;;14.50;99.90;;;;;;5054926;28;20386;-85
2021/06/24 00:18:05;;;;;;;4.32;0.68;;;14.50;99.90;;;;;;5054714;28;20802;-84
2021/06/24 00:20:33;;;;;;;2.90;0.50;;;14.50;99.90;;;;;;5057401;28;20378;-88
2021/06/24 00:23:00;;;;;;;2.30;0.73;;;14.60;99.90;;;;;;5063466;28;20897;-84
2021/06/24 00:25:27;;;;;;;1.40;0.43;;;14.70;99.90;;;;;;5059073;28;20403;-91
2021/06/24 00:27:54;;;;;;;1.40;0.52;;;14.80;99.90;;;;;;5058675;28;20394;-87
2021/06/24 00:30:21;;;;;;;2.78;0.50;;;14.90;99.90;;;;;;5054628;28;20412;-86
2021/06/24 00:32:48;;;;;;;3.10;0.68;;;14.90;99.90;;;;;;5058219;28;20394;-86
2021/06/24 00:35:16;;;;;;;2.00;0.40;;;15.00;99.90;;;;;;5054123;28;20902;-90
2021/06/24 00:37:44;;;;;;;1.83;0.60;;;15.20;99.90;;;;;;5055365;28;20386;-86
2021/06/24 00:40:12;;;;;;;1.63;0.60;;;15.30;99.90;;;;;;5053038;28;20406;-88
2021/06/24 00:42:40;;;;;;;1.83;0.90;;;15.50;99.90;;;;;;5049690;28;20399;-84
2021/06/24 00:45:10;;;;;;;1.77;0.52;;;15.60;99.90;;;;;;5060313;28;20387;-86
2021/06/24 00:47:38;;;;;;;2.35;0.73;;;15.70;99.90;;;;;;5049781;28;20490;-88
2021/06/24 00:50:10;;;;;;;1.20;0.52;;;15.80;99.90;;;;;;5053560;28;20400;-88
2021/06/24 00:52:38;;;;;;;1.27;0.57;;;15.90;99.90;;;;;;5059556;28;20400;-86
2021/06/24 00:55:05;;;;;;;1.83;0.50;;;16.00;99.90;;;;;;5063614;28;20493;-85
2021/06/24 00:57:33;;;;;;;3.05;0.77;;;16.00;99.90;;;;;;5058667;28;20395;-85
2021/06/24 01:00:00;;;;;;;2.88;0.57;;;15.90;99.90;;;;;;5052729;28;20515;-83
2021/06/24 01:02:27;;;;;;;1.65;0.52;;;15.90;99.90;;;;;;5057623;28;20402;-85
2021/06/24 01:04:54;;;;;;;2.17;0.45;;;15.90;99.90;;;;;;5049875;28;20399;-83
2021/06/24 01:07:21;;;;;;;2.75;0.50;;;15.90;99.90;;;;;;5048770;28;20490;-82
2021/06/24 01:09:48;;;;;;;2.60;0.60;;;15.90;99.90;;;;;;5049254;28;20887;-82
2021/06/24 01:12:16;;;;;;;2.20;0.50;;;15.90;99.90;;;;;;5050130;28;20498;-82
2021/06/24 01:14:43;;;;;;;2.53;0.50;;;15.90;99.90;;;;;;5054537;28;20398;-84
2021/06/24 01:17:10;;;;;;;3.27;0.60;;;16.00;99.90;;;;;;5049469;28;20488;-86
2021/06/24 01:19:37;;;;;;;2.03;0.50;;;16.00;99.90;;;;;;5053866;28;20396;-84
2021/06/24 01:22:04;;;;;;;1.33;0.50;;;16.00;99.90;;;;;;5055976;28;20410;-84
2021/06/24 01:24:31;;;;;;;3.80;0.50;;;15.90;99.90;;;;;;5055397;28;20538;-84
2021/06/24 01:26:58;;;;;;;2.33;0.40;;;16.00;99.90;;;;;;5052462;28;20396;-87
2021/06/24 01:29:25;;;;;;;2.35;0.50;;;16.00;99.90;;;;;;5048690;28;20808;-84
2021/06/24 01:31:52;;;;;;;4.13;0.82;;;16.10;99.90;;;;;;5052494;28;20412;-84
2021/06/24 01:34:20;;;;;;;1.70;0.60;;;16.20;99.90;;;;;;5062988;28;20385;-85
2021/06/24 01:36:47;;;;;;;1.67;0.50;;;16.50;99.90;;;;;;5065688;28;20407;-84
2021/06/24 01:39:15;;;;;;;2.90;0.70;;;16.80;99.90;;;;;;5048535;28;20391;-86
2021/06/24 01:41:42;;;;;;;2.80;0.50;;;17.10;99.90;;;;;;5058496;28;20430;-85
2021/06/24 01:44:11;;;;;;;3.90;0.63;;;17.30;99.90;;;;;;5048520;28;20392;-84
2021/06/24 01:46:38;;;;;;;1.15;0.50;;;17.40;99.90;;;;;;5048727;28;20384;-86
2021/06/24 01:49:05;;;;;;;2.75;0.68;;;17.40;99.90;;;;;;5051859;28;20473;-85
2021/06/24 01:51:32;;;;;;;2.20;0.70;;;17.50;99.90;;;;;;5055745;28;20430;-86
2021/06/24 01:53:59;;;;;;;5.13;0.55;;;17.50;99.90;;;;;;5051807;28;20527;-87
2021/06/24 01:56:26;;;;;;;1.83;0.40;;;17.40;99.90;;;;;;5047339;28;20862;-87
2021/06/24 01:58:53;;;;;;;2.77;0.60;;;17.20;99.90;;;;;;5048310;28;20395;-86
2021/06/24 02:01:20;;;;;;;4.18;0.47;;;17.20;99.90;;;;;;5057363;28;20534;-84
2021/06/24 02:03:48;;;;;;;1.70;0.50;;;17.30;99.90;;;;;;5056021;28;20391;-84
2021/06/24 02:06:15;;;;;;;1.80;0.50;;;17.50;99.90;;;;;;5052541;28;20391;-85
2021/06/24 02:08:41;;;;;;;5.18;0.60;;;17.60;99.90;;;;;;5052478;28;20386;-85
2021/06/24 02:11:08;;;;;;;4.95;0.60;;;17.70;99.90;;;;;;5049372;28;20419;-86
2021/06/24 02:13:35;;;;;;;2.33;0.90;;;17.60;99.90;;;;;;5055307;28;20566;-85
2021/06/24 02:16:02;;;;;;;1.88;0.75;;;17.60;99.90;;;;;;5047970;28;20462;-87
2021/06/24 02:18:29;;;;;;;2.85;0.70;;;17.70;99.90;;;;;;5056291;28;20385;-86
2021/06/24 02:20:56;;;;;;;3.42;0.63;;;17.70;99.90;;;;;;5062492;28;20393;-86
2021/06/24 02:23:23;;;;;;;2.25;0.50;;;17.70;99.90;;;;;;5054728;28;20400;-85
2021/06/24 02:25:50;;;;;;;3.75;1.00;;;17.80;99.90;;;;;;5056316;28;20393;-85
2021/06/24 02:28:17;;;;;;;3.33;0.60;;;17.90;99.90;;;;;;5057707;28;20396;-86
2021/06/24 02:30:47;;;;;;;2.90;0.50;;;18.00;99.90;;;;;;5056134;28;20900;-85
2021/06/24 02:33:16;;;;;;;1.95;0.70;;;18.20;99.90;;;;;;5058848;28;20392;-87
2021/06/24 02:35:48;;;;;;;2.67;0.57;;;18.40;99.90;;;;;;5055223;28;20400;-89
2021/06/24 02:38:15;;;;;;;3.63;0.73;;;18.40;99.90;;;;;;5066060;28;20503;-88
2021/06/24 02:40:42;;;;;;;4.18;0.60;;;18.60;99.90;;;;;;5053220;28;20380;-85
2021/06/24 02:43:09;;;;;;;3.50;1.02;;;18.80;99.90;;;;;;5055427;28;20415;-84
2021/06/24 02:45:36;;;;;;;2.90;0.73;;;19.00;99.90;;;;;;5065212;28;20393;-84
2021/06/24 02:48:03;;;;;;;5.70;0.70;;;19.10;99.90;;;;;;5059202;28;20399;-84
2021/06/24 02:50:30;;;;;;;3.45;0.60;;;19.20;99.90;;;;;;5065744;28;20402;-85
2021/06/24 02:52:57;;;;;;;4.20;0.80;;;19.20;99.90;;;;;;5059542;28;20397;-87
2021/06/24 02:55:30;;;;;;;1.90;0.45;;;19.30;99.90;;;;;;5053249;28;20401;-86
2021/06/24 02:57:58;;;;;;;1.85;0.50;;;19.30;99.90;;;;;;5055966;28;20439;-87
2021/06/24 03:00:27;;;;;;;3.37;0.50;;;19.40;99.90;;;;;;5081242;28;20380;-87
2021/06/24 03:02:57;;;;;;;4.18;0.90;;;19.30;99.90;;;;;;5054057;28;20400;-87
2021/06/24 03:05:24;;;;;;;3.40;0.70;;;19.20;99.90;;;;;;5063820;28;20391;-87
2021/06/24 03:07:51;;;;;;;1.93;0.70;;;19.30;99.90;;;;;;5051957;28;20440;-87
2021/06/24 03:10:20;;;;;;;2.72;0.60;;;19.20;99.90;;;;;;5063981;28;20428;-85
2021/06/24 03:12:48;;;;;;;2.05;0.45;;;19.10;99.90;;;;;;5061648;28;20408;-86
2021/06/24 03:15:15;;;;;;;1.83;0.50;;;19.10;99.90;;;;;;5058767;28;20494;-87
2021/06/24 03:17:42;;;;;;;2.53;0.57;;;19.00;99.90;;;;;;5055560;28;20399;-86
2021/06/24 03:20:11;;;;;;;3.15;0.80;;;19.10;99.90;;;;;;5069203;28;20949;-86
2021/06/24 03:22:38;;;;;;;2.90;0.52;;;19.20;99.90;;;;;;5062413;28;20406;-87
2021/06/24 03:25:08;;;;;;;1.75;0.63;;;19.30;99.90;;;;;;5053891;28;20392;-89
2021/06/24 03:27:35;;;;;;;2.63;0.50;;;19.30;99.90;;;;;;5050792;28;20419;-85
2021/06/24 03:30:04;;;;;;;1.65;0.52;;;19.30;99.90;;;;;;5058010;28;20431;-84
2021/06/24 03:32:31;;;;;;;3.65;0.40;;;19.20;99.90;;;;;;5053321;28;20809;-87
2021/06/24 03:34:58;;;;;;;3.17;0.70;;;19.10;99.90;;;;;;5068171;28;20861;-85
2021/06/24 03:37:25;;;;;;;2.65;0.70;;;19.10;99.90;;;;;;5070930;28;20864;-85
2021/06/24 03:39:53;;;;;;;2.45;0.50;;;19.00;99.90;;;;;;5058392;28;20379;-86
2021/06/24 03:42:20;;;;;;;1.60;0.53;;;18.90;99.90;;;;;;5058504;28;20514;-86
2021/06/24 03:44:47;;;;;;;3.03;0.60;;;18.80;99.90;;;;;;5055511;28;20952;-86
2021/06/24 03:47:14;;;;;;;2.85;0.70;;;18.80;99.90;;;;;;5053374;28;20430;-86
2021/06/24 03:49:41;;;;;;;2.30;0.55;;;18.90;99.90;;;;;;5060896;28;20394;-83
2021/06/24 03:52:08;;;;;;;1.20;0.57;;;19.00;99.90;;;;;;5053328;28;20422;-83
2021/06/24 03:54:35;;;;;;;2.03;0.70;;;19.10;99.90;;;;;;5054968;28;20372;-83
2021/06/24 03:57:02;;;;;;;3.55;0.60;;;19.30;99.90;;;;;;5060907;28;20397;-84
2021/06/24 03:59:28;;;;;;;3.00;0.85;;;19.40;99.90;;;;;;5052110;28;20885;-83
2021/06/24 04:01:55;;;;;;;4.22;0.73;;;19.50;99.90;;;;;;5054805;28;20394;-85
2021/06/24 04:04:22;;;;;;;2.10;0.50;;;19.50;99.90;;;;;;5062574;28;20379;-85
2021/06/24 04:06:49;;;;;;;3.70;0.75;;;19.40;99.90;;;;;;5052378;28;20953;-85
2021/06/24 04:09:16;;;;;;;3.33;0.63;;;19.20;99.90;;;;;;5055067;28;20398;-83
2021/06/24 04:11:43;;;;;;;2.78;0.73;;;19.10;99.90;;;;;;5054122;28;20403;-83
2021/06/24 04:14:10;;;;;;;2.57;0.63;;;19.00;99.90;;;;;;5064065;28;20401;-83
2021/06/24 04:16:37;;;;;;;3.77;0.60;;;19.00;99.90;;;;;;5052935;28;20901;-88
2021/06/24 04:19:04;;;;;;;3.03;0.70;;;18.90;99.90;;;;;;5064486;28;20382;-85
2021/06/24 04:21:32;;;;;;;2.00;0.55;;;18.80;99.90;;;;;;5064436;28;20876;-85
2021/06/24 04:23:58;;;;;;;3.33;0.70;;;18.80;99.90;;;;;;5054339;28;20411;-87
2021/06/24 04:26:27;;;;;;;4.72;0.63;;;18.90;99.90;;;;;;5061971;28;20409;-88
2021/06/24 04:28:54;;;;;;;2.63;0.65;;;19.00;99.90;;;;;;5056258;28;20380;-87
2021/06/24 04:31:21;;;;;;;1.95;0.40;;;19.00;99.90;;;;;;5067158;28;20418;-88
2021/06/24 04:33:49;;;;;;;2.83;0.40;;;19.00;99.90;;;;;;5060458;28;21093;-85
2021/06/24 04:36:16;;;;;;;3.60;0.70;;;18.90;99.90;;;;;;5053754;28;20681;-87
2021/06/24 04:38:43;;;;;;;5.28;0.70;;;18.80;99.90;;;;;;5062179;28;20460;-85
2021/06/24 04:41:10;;;;;;;3.75;0.40;;;18.70;99.90;;;;;;5064140;28;21097;-87
2021/06/24 04:43:36;;;;;;;2.75;0.60;;;18.60;99.90;;;;;;5065409;28;20399;-87
2021/06/24 04:46:03;;;;;;;3.35;0.77;;;18.50;99.90;;;;;;5052667;28;20395;-89
2021/06/24 04:48:30;;;;;;;2.47;0.70;;;18.40;99.90;;;;;;5054078;28;20387;-88
2021/06/24 04:50:57;;;;;;;3.40;0.52;;;18.30;99.90;;;;;;5060318;28;20929;-87
2021/06/24 04:53:24;;;;;;;3.42;0.65;;;18.30;99.90;;;;;;5053094;28;20390;-85
2021/06/24 04:55:51;;;;;;;3.88;0.88;;;18.20;99.90;;;;;;5054630;28;20882;-86
2021/06/24 04:58:19;;;;;;;4.78;0.90;;;18.20;99.90;;;;;;5054403;28;20445;-89
2021/06/24 05:00:45;;;;;;;3.17;0.90;;;18.10;99.90;;;;;;5056826;28;20401;-87
2021/06/24 05:03:12;;;;;;;2.97;0.67;;;18.00;99.90;;;;;;5067333;28;21182;-86
2021/06/24 05:05:41;;;;;;;3.25;0.60;;;18.00;99.90;;;;;;5056699;28;21361;-86
2021/06/24 05:08:16;;;;;;;3.20;0.50;;;18.00;99.90;;;;;;5052661;28;20416;-84
2021/06/24 05:10:44;;;;;;;3.75;0.70;;;17.90;99.90;;;;;;5048917;28;20507;-86
2021/06/24 05:13:11;;;;;;;3.45;0.77;;;17.90;99.90;;;;;;5064513;28;20396;-87
2021/06/24 05:15:45;;;;;;;2.50;0.60;;;17.90;99.90;;;;;;5077017;28;20825;-86
2021/06/24 05:18:13;;;;;;;2.70;0.68;;;17.90;99.90;;;;;;5060809;28;20396;-86
2021/06/24 05:20:44;;;;;;;3.88;0.60;;;17.90;99.90;;;;;;5050889;28;20402;-88
2021/06/24 05:23:13;;;;;;;4.20;0.60;;;17.90;99.90;;;;;;5059106;28;20407;-86
2021/06/24 05:25:45;;;;;;;3.50;0.55;;;17.90;99.90;;;;;;5051826;28;20449;-89
2021/06/24 05:28:12;;;;;;;1.98;0.60;;;17.90;99.90;;;;;;5054325;28;20387;-88
2021/06/24 05:30:40;;;;;;;4.97;0.60;;;17.90;99.90;;;;;;5069576;28;20415;-86
2021/06/24 05:33:07;;;;;;;3.13;0.60;;;17.90;99.90;;;;;;5054107;28;20393;-85
2021/06/24 05:35:34;;;;;;;2.60;0.60;;;17.80;99.90;;;;;;5069940;28;20455;-87
2021/06/24 05:38:01;;;;;;;4.00;0.60;;;17.90;99.90;;;;;;5056456;28;20391;-84
2021/06/24 05:40:28;;;;;;;4.93;0.70;;;17.90;99.90;;;;;;5057012;28;20898;-87
2021/06/24 05:42:55;;;;;;;4.50;0.80;;;18.00;99.90;;;;;;5048526;28;20392;-87
2021/06/24 05:45:27;;;;;;;2.08;0.45;;;18.00;99.90;;;;;;5067691;28;20374;-86
2021/06/24 05:47:55;;;;;;;1.63;0.67;;;18.00;99.90;;;;;;5057192;28;20380;-86
2021/06/24 05:50:24;;;;;;;1.87;0.60;;;17.90;99.90;;;;;;5056144;28;20509;-84
2021/06/24 05:52:53;;;;;;;3.80;0.77;;;17.80;99.90;;;;;;5075615;28;20459;-87
2021/06/24 05:56:07;;;;;;;2.72;0.60;;;17.80;99.90;;;;;;5054154;28;20380;-87
2021/06/24 05:58:10;;;;;;;2.40;0.60;;;17.70;99.90;;;;;;5053455;28;20406;-86
2021/06/24 06:00:38;;;;;;;2.97;0.70;;;17.60;99.90;;;;;;5047084;28;20399;-87
2021/06/24 06:03:06;;;;;;;1.48;0.60;;;17.50;99.90;;;;;;5054569;28;20384;-87
2021/06/24 06:05:33;;;;;;;4.07;0.60;;;17.50;99.90;;;;;;5058107;28;20560;-89
2021/06/24 06:08:01;;;;;;;4.82;0.70;;;17.40;99.90;;;;;;5056850;28;20489;-87
2021/06/24 06:10:28;;;;;;;3.83;0.82;;;17.50;99.90;;;;;;5062373;28;20443;-86
2021/06/24 06:12:55;;;;;;;3.95;1.00;;;17.50;99.90;;;;;;5063214;28;20398;-86
2021/06/24 06:15:22;;;;;;;1.67;0.90;;;17.50;99.90;;;;;;5061216;28;20466;-85
2021/06/24 06:17:49;;;;;;;4.22;2.08;;;17.40;99.90;;;;;;5058519;28;20428;-86
2021/06/24 06:20:17;;;;;;;3.38;0.60;;;17.30;99.90;;;;;;5063176;28;20402;-87
2021/06/24 06:22:44;;;;;;;3.08;1.23;;;17.20;99.90;;;;;;5056109;28;20375;-88
2021/06/24 06:25:13;;;;;;;3.58;1.20;;;17.20;99.90;;;;;;5057225;28;20790;-86
2021/06/24 06:27:41;;;;;;;3.25;1.13;;;17.20;99.90;;;;;;5057015;28;20728;-89
2021/06/24 06:30:09;;;;;;;5.18;1.75;;;17.10;99.90;;;;;;5058280;28;20473;-87
2021/06/24 06:32:36;;;;;;;4.43;1.42;;;17.10;99.90;;;;;;5056375;28;20388;-87
2021/06/24 06:35:03;;;;;;;2.95;0.95;;;17.00;99.90;;;;;;5065036;28;20405;-88
2021/06/24 06:37:30;;;;;;;2.22;0.70;;;16.80;99.90;;;;;;5069468;28;20453;-89
2021/06/24 06:39:57;;;;;;;2.85;1.02;;;16.90;99.90;;;;;;5063744;28;20387;-83
2021/06/24 06:42:24;;;;;;;2.92;0.90;;;16.80;99.90;;;;;;5054301;28;20391;-84
2021/06/24 06:44:51;;;;;;;3.67;0.73;;;16.90;99.90;;;;;;5060366;28;20428;-85
2021/06/24 06:47:18;;;;;;;2.20;0.50;;;16.90;99.90;;;;;;5066723;28;20369;-87
2021/06/24 06:49:45;;;;;;;4.13;0.50;;;16.90;99.90;;;;;;5071381;28;20378;-86
2021/06/24 06:52:12;;;;;;;1.70;0.50;;;17.00;99.90;;;;;;5056129;28;20394;-85
2021/06/24 06:54:39;;;;;;;7.15;4.68;;;17.00;99.90;;;;;;5051802;28;20422;-83
2021/06/24 06:57:06;;;;;;;2.35;0.30;;;16.90;99.90;;;;;;5051508;28;21092;-86
2021/06/24 06:59:35;;;;;;;3.75;0.60;;;17.00;99.90;;;;;;5051810;28;20372;-85
2021/06/24 07:02:02;;;;;;;3.00;0.60;;;17.00;99.90;;;;;;5058568;28;20426;-85
2021/06/24 07:04:29;;;;;;;1.88;0.50;;;17.00;99.90;;;;;;5065631;28;21315;-85
2021/06/24 07:06:56;;;;;;;1.92;0.50;;;17.00;99.90;;;;;;5073113;28;20374;-88
2021/06/24 07:09:23;;;;;;;1.08;0.40;;;17.00;99.90;;;;;;5055717;28;20755;-86
2021/06/24 07:11:50;;;;;;;3.13;0.55;;;17.00;99.90;;;;;;5055851;28;20460;-85
2021/06/24 07:14:18;;;;;;;2.30;0.60;;;16.90;99.90;;;;;;5053906;28;20553;-88
2021/06/24 07:16:45;;;;;;;2.05;0.60;;;16.90;99.90;;;;;;5053247;28;20398;-87
2021/06/24 07:19:13;;;;;;;2.80;0.60;;;16.90;99.90;;;;;;5062455;28;20386;-86
2021/06/24 07:21:43;;;;;;;129.97;79.80;;;16.90;99.90;;;;;;5070105;28;20405;-86
2021/06/24 07:24:10;;;;;;;111.50;68.27;;;16.90;99.90;;;;;;5054633;28;20495;-88
2021/06/24 07:26:39;;;;;;;11.25;6.38;;;16.90;99.90;;;;;;5054951;28;20401;-87
2021/06/24 07:29:06;;;;;;;4.60;2.30;;;16.80;99.90;;;;;;5079649;28;20499;-88
2021/06/24 07:31:34;;;;;;;5.15;2.08;;;16.80;99.90;;;;;;5055733;28;20485;-87
2021/06/24 07:34:01;;;;;;;4.40;1.35;;;16.80;99.90;;;;;;5061545;28;20417;-88
2021/06/24 07:36:28;;;;;;;2.15;1.05;;;16.80;99.90;;;;;;5061445;28;20921;-86
2021/06/24 07:38:55;;;;;;;1.65;0.88;;;16.80;99.90;;;;;;5050591;28;20803;-87
2021/06/24 07:41:24;;;;;;;3.30;0.88;;;16.80;99.90;;;;;;5050181;28;20550;-88
2021/06/24 07:43:52;;;;;;;4.70;4.25;;;16.70;99.90;;;;;;5050272;28;20402;-85
2021/06/24 07:46:20;;;;;;;1.33;0.68;;;16.60;99.90;;;;;;5061538;28;20382;-84
2021/06/24 07:48:48;;;;;;;3.90;0.82;;;16.60;99.90;;;;;;5068863;28;20516;-86
2021/06/24 07:51:15;;;;;;;2.25;0.50;;;16.50;99.90;;;;;;5069114;28;20409;-86
2021/06/24 07:53:42;;;;;;;2.03;0.60;;;16.50;99.90;;;;;;5054925;28;20743;-86
2021/06/24 07:56:17;;;;;;;3.53;0.70;;;16.50;99.90;;;;;;5053777;28;20475;-84
2021/06/24 07:58:44;;;;;;;2.55;0.70;;;16.40;99.90;;;;;;5052440;28;20403;-86
2021/06/24 08:01:11;;;;;;;3.28;0.77;;;16.40;99.90;;;;;;5058730;28;20386;-85
2021/06/24 08:03:38;;;;;;;3.25;0.60;;;16.30;99.90;;;;;;5058674;28;20397;-86
2021/06/24 08:06:06;;;;;;;2.38;0.85;;;16.20;99.90;;;;;;5057498;28;20392;-83
2021/06/24 08:08:33;;;;;;;2.50;1.10;;;16.20;99.90;;;;;;5058261;28;20390;-86
2021/06/24 08:11:00;;;;;;;2.72;1.10;;;16.20;99.90;;;;;;5051844;28;20476;-85
2021/06/24 08:13:28;;;;;;;2.65;1.50;;;16.30;99.90;;;;;;5063312;28;20909;-83
2021/06/24 08:15:57;;;;;;;5.07;1.83;;;16.30;99.90;;;;;;5054086;28;20400;-85
2021/06/24 08:18:24;;;;;;;2.65;1.25;;;16.40;99.90;;;;;;5050393;28;20791;-86
2021/06/24 08:20:51;;;;;;;1.20;0.77;;;16.40;99.90;;;;;;5050770;28;22135;-83
2021/06/24 08:23:19;;;;;;;1.73;0.80;;;16.40;99.90;;;;;;5060280;28;20396;-83
2021/06/24 08:25:47;;;;;;;1.60;0.60;;;16.50;99.90;;;;;;5054680;28;20392;-82
2021/06/24 08:28:14;;;;;;;8.43;5.97;;;16.50;99.90;;;;;;5050098;28;20398;-83
2021/06/24 08:30:44;;;;;;;1.67;0.40;;;16.40;99.90;;;;;;5057774;28;20401;-84
2021/06/24 08:33:15;;;;;;;2.80;0.45;;;16.50;99.90;;;;;;5049928;28;20400;-82
2021/06/24 08:35:43;;;;;;;2.05;0.50;;;16.50;99.90;;;;;;5069170;28;20362;-82
2021/06/24 08:38:11;;;;;;;1.85;0.60;;;16.50;99.90;;;;;;5057902;28;20398;-87
2021/06/24 08:40:40;;;;;;;0.70;0.50;;;16.60;99.90;;;;;;5050274;28;20826;-85
2021/06/24 08:43:08;;;;;;;0.70;0.47;;;16.50;99.90;;;;;;5056727;28;20496;-82
2021/06/24 08:45:38;;;;;;;1.23;0.70;;;16.50;99.90;;;;;;5049700;28;20379;-83
2021/06/24 08:48:15;;;;;;;0.90;0.70;;;16.50;99.90;;;;;;5049759;28;20850;-83
2021/06/24 08:50:45;;;;;;;3.28;0.90;;;16.40;99.90;;;;;;5059007;28;20505;-86
2021/06/24 08:53:13;;;;;;;1.97;0.67;;;16.40;99.90;;;;;;5053529;28;20419;-84
2021/06/24 08:55:41;;;;;;;1.77;0.80;;;16.40;99.90;;;;;;5069296;28;20430;-86
2021/06/24 08:58:08;;;;;;;0.98;0.57;;;16.30;99.90;;;;;;5058370;28;20393;-86
2021/06/24 09:00:36;;;;;;;3.10;0.70;;;16.30;99.90;;;;;;5054857;28;20494;-84
2021/06/24 09:03:21;;;;;;;2.75;0.70;;;16.30;99.90;;;;;;5063960;28;20778;-83
2021/06/24 09:05:50;;;;;;;0.95;0.50;;;16.20;99.90;;;;;;5049557;28;20415;-83
2021/06/24 09:08:38;;;;;;;1.70;0.68;;;16.10;99.90;;;;;;5054808;28;20886;-83
2021/06/24 09:11:18;;;;;;;1.40;0.70;;;16.10;99.90;;;;;;5053604;28;20407;-84
2021/06/24 09:14:05;;;;;;;1.42;0.60;;;16.10;99.90;;;;;;5050660;28;20396;-82
2021/06/24 09:16:35;;;;;;;1.83;0.60;;;16.00;99.90;;;;;;5045693;28;20390;-85
2021/06/24 09:19:27;;;;;;;2.90;0.60;;;16.00;99.90;;;;;;5054171;28;20482;-82
2021/06/24 09:22:12;;;;;;;1.50;0.63;;;16.00;99.90;;;;;;5055702;28;20374;-84
2021/06/24 09:24:46;;;;;;;1.55;0.50;;;15.90;99.90;;;;;;5053236;28;20833;-82
2021/06/24 09:27:19;;;;;;;1.67;0.65;;;15.90;99.90;;;;;;5049300;28;20878;-83
2021/06/24 09:30:08;;;;;;;1.10;0.43;;;15.90;99.90;;;;;;5058224;28;20413;-83
2021/06/24 09:32:39;;;;;;;2.08;0.60;;;15.90;99.90;;;;;;5054116;28;20403;-83
2021/06/24 09:35:08;;;;;;;2.33;0.43;;;15.80;99.90;;;;;;5053610;28;20406;-84
2021/06/24 09:38:07;;;;;;;2.25;0.45;;;15.70;99.90;;;;;;5063868;28;21253;-83
2021/06/24 09:40:47;;;;;;;1.15;0.50;;;15.70;99.90;;;;;;5047469;28;20404;-83
2021/06/24 09:43:31;;;;;;;1.33;0.70;;;15.50;99.90;;;;;;5050576;28;20453;-83
2021/06/24 09:46:11;;;;;;;1.30;1.00;;;15.50;99.90;;;;;;5050688;28;20380;-83
2021/06/24 09:48:42;;;;;;;1.27;0.63;;;15.40;99.90;;;;;;5048537;28;20941;-85
2021/06/24 09:51:18;;;;;;;1.55;0.88;;;15.30;99.90;;;;;;5053393;28;20415;-83
2021/06/24 09:53:58;;;;;;;2.90;0.70;;;15.20;99.90;;;;;;5051869;28;20475;-82
2021/06/24 09:56:45;;;;;;;1.80;0.60;;;15.10;99.90;;;;;;5049480;28;21078;-83
2021/06/24 09:59:15;;;;;;;1.13;0.85;;;15.00;99.90;;;;;;5055426;28;20398;-82
2021/06/24 10:01:46;;;;;;;1.00;0.60;;;15.00;99.90;;;;;;5067935;28;20441;-82
2021/06/24 10:04:29;;;;;;;1.75;0.90;;;15.00;99.90;;;;;;5054314;28;20390;-82
2021/06/24 10:07:01;;;;;;;2.93;2.27;;;15.00;99.90;;;;;;5055819;28;20399;-83
2021/06/24 10:09:30;;;;;;;3.67;1.92;;;15.00;99.90;;;;;;5053771;28;20385;-82
2021/06/24 10:11:58;;;;;;;4.70;2.20;;;15.00;99.90;;;;;;5059563;28;20897;-82
2021/06/24 10:14:27;;;;;;;1.95;1.75;;;14.90;99.90;;;;;;5053818;28;20420;-83
2021/06/24 10:16:59;;;;;;;2.00;1.30;;;14.90;99.90;;;;;;5049750;28;20403;-82
2021/06/24 10:19:33;;;;;;;1.92;0.65;;;14.80;99.90;;;;;;5056747;28;20406;-82
2021/06/24 10:22:22;;;;;;;2.50;0.80;;;14.90;99.90;;;;;;5057182;28;20419;-84
2021/06/24 10:24:53;;;;;;;1.60;0.60;;;14.90;99.90;;;;;;5050559;28;20919;-83
2021/06/24 10:27:21;;;;;;;1.77;0.60;;;15.00;99.90;;;;;;5055297;28;20890;-82
2021/06/24 10:29:52;;;;;;;1.67;0.90;;;15.10;99.90;;;;;;5050979;28;20406;-83
2021/06/24 10:32:34;;;;;;;2.22;0.70;;;15.10;99.90;;;;;;5054588;28;20528;-84
2021/06/24 10:35:06;;;;;;;0.98;0.60;;;15.20;99.90;;;;;;5050981;28;20460;-83
2021/06/24 10:37:35;;;;;;;1.95;0.82;;;15.20;99.90;;;;;;5047945;28;20395;-83
2021/06/24 10:40:22;;;;;;;1.98;0.70;;;15.30;99.90;;;;;;5059690;28;20397;-86
2021/06/24 10:42:55;;;;;;;4.05;0.90;;;15.30;99.90;;;;;;5051655;28;20409;-86
2021/06/24 10:45:23;;;;;;;2.83;0.82;;;15.30;99.90;;;;;;5047852;28;20410;-84
2021/06/24 10:47:50;;;;;;;1.80;0.60;;;15.20;99.90;;;;;;5053942;28;20964;-84
2021/06/24 10:50:30;;;;;;;2.20;0.70;;;15.10;99.90;;;;;;5053410;28;20436;-84
2021/06/24 10:53:04;;;;;;;3.92;1.20;;;15.10;99.90;;;;;;5048721;28;20461;-86
2021/06/24 10:55:42;;;;;;;2.75;1.80;;;14.90;99.90;;;;;;5048955;28;20440;-86
2021/06/24 10:58:18;;;;;;;1.57;1.00;;;14.80;99.90;;;;;;5060288;28;20415;-85
2021/06/24 11:00:52;;;;;;;2.47;1.10;;;14.70;99.90;;;;;;5055589;28;20489;-84
2021/06/24 11:03:26;;;;;;;2.42;0.75;;;14.70;99.90;;;;;;5063782;28;20480;-84
2021/06/24 11:05:55;;;;;;;2.85;1.00;;;14.70;99.90;;;;;;5047126;28;20473;-85
2021/06/24 11:08:30;;;;;;;2.38;0.85;;;14.80;99.90;;;;;;5046934;28;20419;-83
2021/06/24 11:10:58;;;;;;;2.83;0.80;;;14.80;99.90;;;;;;5059233;28;20891;-84
2021/06/24 11:16:06;;;;;;;1.00;0.60;;;14.70;99.90;;;;;;5067359;28;20374;-85
2021/06/24 11:18:38;;;;;;;1.38;0.60;;;14.80;99.90;;;;;;5058096;28;20395;-84
2021/06/24 11:21:18;;;;;;;1.38;0.95;;;14.80;99.90;;;;;;5046135;28;20457;-86
2021/06/24 11:23:59;;;;;;;1.88;1.55;;;14.70;99.90;;;;;;5046726;28;20735;-85
2021/06/24 11:26:26;;;;;;;3.25;1.77;;;14.50;99.90;;;;;;5047158;28;20875;-86
2021/06/24 11:29:02;;;;;;;4.25;1.65;;;14.40;99.90;;;;;;5069869;28;20492;-85
2021/06/24 11:34:31;;;;;;;1.88;1.40;;;14.20;99.90;;;;;;5054177;28;20763;-85
2021/06/24 11:37:03;;;;;;;2.60;1.37;;;14.20;99.90;;;;;;5050288;28;20747;-86
2021/06/24 11:39:36;;;;;;;3.67;1.10;;;14.20;99.90;;;;;;5047444;28;20415;-85
2021/06/24 11:42:08;;;;;;;4.63;1.10;;;14.20;99.90;;;;;;4843358;28;6027912;-86
2021/06/24 11:44:38;;;;;;;0.95;0.82;;;14.20;99.90;;;;;;5052652;28;20472;-85
2021/06/24 11:47:09;;;;;;;1.10;0.90;;;14.30;99.90;;;;;;5050550;28;20500;-87
2021/06/24 12:04:02;;;;;;;3.30;1.00;;;14.30;99.90;;;;;;5063702;28;20396;-84
2021/06/24 12:06:48;;;;;;;3.70;0.90;;;14.30;99.90;;;;;;5064280;28;20861;-85
2021/06/24 12:09:22;;;;;;;1.35;0.80;;;14.20;99.90;;;;;;5056476;28;20420;-85
2021/06/24 12:11:57;;;;;;;4.90;1.13;;;14.20;99.90;;;;;;5058998;28;20893;-87
2021/06/24 12:14:33;;;;;;;1.75;1.00;;;14.10;99.90;;;;;;5062004;28;20413;-84
2021/06/24 12:17:12;;;;;;;2.20;1.08;;;14.10;99.90;;;;;;5068641;28;20394;-85
2021/06/24 12:19:45;;;;;;;2.55;1.20;;;14.10;99.90;;;;;;5059244;28;20393;-86
2021/06/24 12:22:14;;;;;;;3.08;1.00;;;14.10;99.90;;;;;;5066290;28;20404;-84
2021/06/24 12:24:42;;;;;;;2.28;1.40;;;14.10;99.90;;;;;;5068243;28;20382;-85
2021/06/24 12:27:23;;;;;;;2.97;0.80;;;14.00;99.90;;;;;;5054176;28;20631;-85
2021/06/24 12:29:52;;;;;;;2.97;0.85;;;14.10;99.90;;;;;;5056341;28;20392;-83
2021/06/24 12:32:20;;;;;;;3.38;0.70;;;14.10;99.90;;;;;;5057429;28;20423;-84
2021/06/24 12:34:49;;;;;;;1.77;0.77;;;14.20;99.90;;;;;;5066247;28;20815;-84
2021/06/24 12:37:43;;;;;;;1.30;0.70;;;14.20;99.90;;;;;;5056232;28;21683;-85
2021/06/24 12:40:14;;;;;;;1.77;0.75;;;14.20;99.90;;;;;;5052375;28;20378;-85
2021/06/24 12:42:57;;;;;;;2.25;1.00;;;14.20;99.90;;;;;;5062623;28;20556;-85
2021/06/24 12:45:27;;;;;;;1.63;0.60;;;14.20;99.90;;;;;;5061519;28;21005;-84
2021/06/24 12:47:55;;;;;;;2.70;0.60;;;14.20;99.90;;;;;;5050279;28;20470;-84
2021/06/24 12:50:31;;;;;;;2.15;0.88;;;14.20;99.90;;;;;;5051755;28;20445;-84
2021/06/24 12:53:09;;;;;;;0.80;0.60;;;14.20;99.90;;;;;;5062407;28;20802;-86
2021/06/24 12:55:47;;;;;;;2.35;0.93;;;14.20;99.90;;;;;;5067550;28;20374;-83
2021/06/24 12:58:18;;;;;;;3.25;0.80;;;14.20;99.90;;;;;;5068220;28;20408;-84
2021/06/24 13:00:59;;;;;;;2.55;0.68;;;14.20;99.90;;;;;;5063988;28;20397;-83
2021/06/24 13:03:44;;;;;;;1.83;0.90;;;14.20;99.90;;;;;;5070973;28;20392;-83
2021/06/24 13:06:14;;;;;;;1.73;0.85;;;14.20;99.90;;;;;;5062492;28;20372;-84
2021/06/24 13:09:05;;;;;;;2.58;1.00;;;14.30;99.90;;;;;;5068862;28;20402;-84
2021/06/24 13:11:34;;;;;;;31.73;18.02;;;14.20;99.90;;;;;;5065885;28;20400;-85
2021/06/24 13:14:01;;;;;;;2.47;1.10;;;14.20;99.90;;;;;;5073426;28;20747;-83
2021/06/24 13:16:34;;;;;;;3.72;1.55;;;14.30;99.90;;;;;;5072068;28;20462;-83
2021/06/24 13:19:07;;;;;;;2.85;1.13;;;14.30;99.90;;;;;;5065461;28;20407;-82